sensor_id;sensor_type;location;lat;lon;timestamp;pressure;altitude;pressure_sealevel;temperature;humidity
23733;BME280;12047;53.450;-2.286;2023-07-24T00:04:41;100283.94;;;16.18;100.00
23733;BME280;12047;53.450;-2.286;2023-07-24T00:09:41;100296.47;;;16.18;100.00
23733;BME280;12047;53.450;-2.286;2023-07-24T00:14:42;100291.91;;;16.77;100.00
23733;BME280;12047;53.450;-2.286;2023-07-24T00:19:42;100294.69;;;16.69;100.00
23733;BME280;12047;53.450;-2.286;2023-07-24T00:24:43;100294.63;;;16.33;100.00
23733;BME280;12047;53.450;-2.286;2023-07-24T00:29:43;100300.69;;;16.12;100.00
23733;BME280;12047;53.450;-2.286;2023-07-24T00:34:44;100301.44;;;16.65;100.00
23733;BME280;12047;53.450;-2.286;2023-07-24T00:39:44;100295.91;;;16.66;100.00
23733;BME280;12047;53.450;-2.286;2023-07-24T00:44:45;100292.47;;;16.58;100.00
23733;BME280;12047;53.450;-2.286;2023-07-24T00:49:46;100290.44;;;16.75;100.00
23733;BME280;12047;53.450;-2.286;2023-07-24T00:54:46;100289.06;;;16.79;100.00
23733;BME280;12047;53.450;-2.286;2023-07-24T00:59:47;100284.09;;;16.17;100.00
23733;BME280;12047;53.450;-2.286;2023-07-24T01:04:48;100283.09;;;16.32;100.00
23733;BME280;12047;53.450;-2.286;2023-07-24T01:09:49;100278.00;;;16.52;100.00
23733;BME280;12047;53.450;-2.286;2023-07-24T01:15:06;100280.16;;;16.93;100.00
23733;BME280;12047;53.450;-2.286;2023-07-24T01:20:11;100272.53;;;16.60;100.00
23733;BME280;12047;53.450;-2.286;2023-07-24T01:26:03;100274.06;;;16.84;100.00
23733;BME280;12047;53.450;-2.286;2023-07-24T01:31:02;100271.44;;;17.27;100.00
23733;BME280;12047;53.450;-2.286;2023-07-24T01:36:04;100276.19;;;17.53;100.00
23733;BME280;12047;53.450;-2.286;2023-07-24T01:41:05;100277.84;;;18.10;100.00
23733;BME280;12047;53.450;-2.286;2023-07-24T01:46:06;100276.13;;;17.95;100.00
23733;BME280;12047;53.450;-2.286;2023-07-24T01:51:07;100278.34;;;17.92;100.00
23733;BME280;12047;53.450;-2.286;2023-07-24T01:56:07;100278.75;;;17.89;100.00
23733;BME280;12047;53.450;-2.286;2023-07-24T02:01:07;100278.91;;;17.81;100.00
23733;BME280;12047;53.450;-2.286;2023-07-24T02:06:08;100277.03;;;17.53;100.00
23733;BME280;12047;53.450;-2.286;2023-07-24T02:11:08;100286.00;;;17.95;100.00
23733;BME280;12047;53.450;-2.286;2023-07-24T02:16:09;100282.75;;;17.72;100.00
23733;BME280;12047;53.450;-2.286;2023-07-24T02:21:09;100281.38;;;17.82;100.00
23733;BME280;12047;53.450;-2.286;2023-07-24T02:26:10;100272.91;;;17.57;100.00
23733;BME280;12047;53.450;-2.286;2023-07-24T02:31:11;100272.13;;;17.63;100.00
23733;BME280;12047;53.450;-2.286;2023-07-24T02:36:11;100273.88;;;17.71;100.00
23733;BME280;12047;53.450;-2.286;2023-07-24T02:41:12;100279.25;;;17.71;100.00
23733;BME280;12047;53.450;-2.286;2023-07-24T02:46:12;100280.47;;;17.96;100.00
23733;BME280;12047;53.450;-2.286;2023-07-24T02:51:13;100278.50;;;17.56;100.00
23733;BME280;12047;53.450;-2.286;2023-07-24T02:56:13;100282.06;;;17.42;100.00
23733;BME280;12047;53.450;-2.286;2023-07-24T03:01:14;100279.00;;;17.45;100.00
23733;BME280;12047;53.450;-2.286;2023-07-24T03:06:14;100281.69;;;17.94;100.00
23733;BME280;12047;53.450;-2.286;2023-07-24T03:11:15;100281.56;;;17.53;100.00
23733;BME280;12047;53.450;-2.286;2023-07-24T03:16:15;100286.16;;;17.16;100.00
23733;BME280;12047;53.450;-2.286;2023-07-24T03:21:17;100290.94;;;17.21;100.00
23733;BME280;12047;53.450;-2.286;2023-07-24T03:26:19;100282.69;;;17.93;100.00
23733;BME280;12047;53.450;-2.286;2023-07-24T03:31:19;100281.50;;;17.46;100.00
23733;BME280;12047;53.450;-2.286;2023-07-24T03:36:20;100287.03;;;17.45;100.00
23733;BME280;12047;53.450;-2.286;2023-07-24T03:41:20;100287.34;;;17.35;100.00
23733;BME280;12047;53.450;-2.286;2023-07-24T03:46:21;100300.63;;;17.00;100.00
23733;BME280;12047;53.450;-2.286;2023-07-24T03:51:21;100298.69;;;17.80;100.00
23733;BME280;12047;53.450;-2.286;2023-07-24T03:56:22;100308.66;;;17.00;100.00
23733;BME280;12047;53.450;-2.286;2023-07-24T04:01:22;100314.72;;;17.30;100.00
23733;BME280;12047;53.450;-2.286;2023-07-24T04:06:23;100320.91;;;17.31;100.00
23733;BME280;12047;53.450;-2.286;2023-07-24T04:11:23;100325.38;;;17.24;100.00
23733;BME280;12047;53.450;-2.286;2023-07-24T04:16:23;100335.78;;;17.76;100.00
23733;BME280;12047;53.450;-2.286;2023-07-24T04:21:24;100327.97;;;17.60;100.00
23733;BME280;12047;53.450;-2.286;2023-07-24T04:26:24;100341.94;;;17.34;100.00
23733;BME280;12047;53.450;-2.286;2023-07-24T04:31:25;100342.16;;;18.03;100.00
23733;BME280;12047;53.450;-2.286;2023-07-24T04:36:25;100332.06;;;17.56;100.00
23733;BME280;12047;53.450;-2.286;2023-07-24T04:41:26;100334.59;;;17.85;100.00
23733;BME280;12047;53.450;-2.286;2023-07-24T04:46:26;100344.50;;;18.47;100.00
23733;BME280;12047;53.450;-2.286;2023-07-24T04:51:26;100348.28;;;18.59;100.00
23733;BME280;12047;53.450;-2.286;2023-07-24T04:56:27;100359.09;;;18.38;100.00
23733;BME280;12047;53.450;-2.286;2023-07-24T05:01:27;100355.69;;;17.95;100.00
23733;BME280;12047;53.450;-2.286;2023-07-24T05:06:28;100364.47;;;18.10;100.00
23733;BME280;12047;53.450;-2.286;2023-07-24T05:11:28;100369.13;;;17.31;100.00
23733;BME280;12047;53.450;-2.286;2023-07-24T05:16:29;100378.94;;;17.45;100.00
23733;BME280;12047;53.450;-2.286;2023-07-24T05:21:29;100380.13;;;17.79;100.00
23733;BME280;12047;53.450;-2.286;2023-07-24T05:26:29;100387.72;;;17.39;100.00
23733;BME280;12047;53.450;-2.286;2023-07-24T05:31:30;100377.91;;;17.89;100.00
23733;BME280;12047;53.450;-2.286;2023-07-24T05:36:30;100381.50;;;17.75;100.00
23733;BME280;12047;53.450;-2.286;2023-07-24T05:41:31;100398.72;;;17.65;100.00
23733;BME280;12047;53.450;-2.286;2023-07-24T05:46:31;100401.44;;;17.51;100.00
23733;BME280;12047;53.450;-2.286;2023-07-24T05:51:32;100402.22;;;17.45;100.00
23733;BME280;12047;53.450;-2.286;2023-07-24T05:56:32;100399.72;;;18.63;100.00
23733;BME280;12047;53.450;-2.286;2023-07-24T06:01:32;100392.03;;;17.55;100.00
23733;BME280;12047;53.450;-2.286;2023-07-24T06:06:33;100396.25;;;18.13;100.00
23733;BME280;12047;53.450;-2.286;2023-07-24T06:11:34;100403.56;;;17.55;100.00
23733;BME280;12047;53.450;-2.286;2023-07-24T06:16:34;100408.13;;;17.76;100.00
23733;BME280;12047;53.450;-2.286;2023-07-24T06:21:34;100410.47;;;17.86;100.00
23733;BME280;12047;53.450;-2.286;2023-07-24T06:26:35;100422.34;;;17.41;100.00
23733;BME280;12047;53.450;-2.286;2023-07-24T06:31:35;100419.75;;;18.11;100.00
23733;BME280;12047;53.450;-2.286;2023-07-24T06:36:36;100426.59;;;17.92;100.00
23733;BME280;12047;53.450;-2.286;2023-07-24T06:41:37;100431.13;;;18.13;100.00
23733;BME280;12047;53.450;-2.286;2023-07-24T06:46:37;100442.88;;;18.40;100.00
23733;BME280;12047;53.450;-2.286;2023-07-24T06:51:37;100432.72;;;18.35;100.00
23733;BME280;12047;53.450;-2.286;2023-07-24T06:56:38;100436.75;;;18.74;100.00
23733;BME280;12047;53.450;-2.286;2023-07-24T07:01:39;100444.66;;;18.54;100.00
23733;BME280;12047;53.450;-2.286;2023-07-24T07:06:39;100447.41;;;18.12;100.00
23733;BME280;12047;53.450;-2.286;2023-07-24T07:11:40;100451.53;;;18.63;100.00
23733;BME280;12047;53.450;-2.286;2023-07-24T07:16:40;100452.84;;;17.97;100.00
23733;BME280;12047;53.450;-2.286;2023-07-24T07:21:41;100456.47;;;18.39;100.00
23733;BME280;12047;53.450;-2.286;2023-07-24T07:26:41;100455.63;;;18.10;100.00
23733;BME280;12047;53.450;-2.286;2023-07-24T07:31:41;100469.00;;;18.31;100.00
23733;BME280;12047;53.450;-2.286;2023-07-24T07:36:42;100465.16;;;18.62;100.00
23733;BME280;12047;53.450;-2.286;2023-07-24T07:41:42;100470.19;;;18.22;100.00
23733;BME280;12047;53.450;-2.286;2023-07-24T07:46:43;100473.25;;;18.68;100.00
23733;BME280;12047;53.450;-2.286;2023-07-24T07:51:43;100474.34;;;18.25;100.00
23733;BME280;12047;53.450;-2.286;2023-07-24T07:56:44;100480.28;;;18.20;100.00
23733;BME280;12047;53.450;-2.286;2023-07-24T08:01:44;100487.25;;;18.43;100.00
23733;BME280;12047;53.450;-2.286;2023-07-24T08:06:46;100490.09;;;18.13;100.00
23733;BME280;12047;53.450;-2.286;2023-07-24T08:11:47;100490.50;;;18.10;100.00
23733;BME280;12047;53.450;-2.286;2023-07-24T08:16:50;100497.09;;;18.35;100.00
23733;BME280;12047;53.450;-2.286;2023-07-24T08:21:51;100494.75;;;19.03;100.00
23733;BME280;12047;53.450;-2.286;2023-07-24T08:26:51;100501.03;;;18.89;100.00
23733;BME280;12047;53.450;-2.286;2023-07-24T08:31:55;100497.34;;;19.79;100.00
23733;BME280;12047;53.450;-2.286;2023-07-24T08:36:59;100501.28;;;19.89;100.00
23733;BME280;12047;53.450;-2.286;2023-07-24T08:41:59;100497.59;;;20.36;100.00
23733;BME280;12047;53.450;-2.286;2023-07-24T08:47:00;100494.75;;;20.38;100.00
23733;BME280;12047;53.450;-2.286;2023-07-24T08:52:03;100493.75;;;21.30;100.00
23733;BME280;12047;53.450;-2.286;2023-07-24T08:57:11;100495.94;;;20.88;100.00
23733;BME280;12047;53.450;-2.286;2023-07-24T09:02:12;100495.41;;;21.37;100.00
23733;BME280;12047;53.450;-2.286;2023-07-24T09:07:13;100496.25;;;21.76;100.00
23733;BME280;12047;53.450;-2.286;2023-07-24T09:12:15;100500.25;;;21.60;100.00
23733;BME280;12047;53.450;-2.286;2023-07-24T09:17:16;100505.47;;;20.97;100.00
23733;BME280;12047;53.450;-2.286;2023-07-24T09:22:16;100492.56;;;21.26;100.00
23733;BME280;12047;53.450;-2.286;2023-07-24T09:27:20;100497.06;;;21.32;100.00
23733;BME280;12047;53.450;-2.286;2023-07-24T09:32:25;100506.03;;;21.13;100.00
23733;BME280;12047;53.450;-2.286;2023-07-24T09:37:28;100507.75;;;20.15;100.00
23733;BME280;12047;53.450;-2.286;2023-07-24T09:42:34;100500.25;;;21.60;100.00
23733;BME280;12047;53.450;-2.286;2023-07-24T09:47:35;100505.59;;;21.29;100.00
23733;BME280;12047;53.450;-2.286;2023-07-24T09:52:36;100502.56;;;20.79;100.00
23733;BME280;12047;53.450;-2.286;2023-07-24T09:57:44;100509.34;;;21.72;100.00
23733;BME280;12047;53.450;-2.286;2023-07-24T10:02:45;100519.69;;;21.18;100.00
23733;BME280;12047;53.450;-2.286;2023-07-24T10:07:47;100516.03;;;21.57;100.00
23733;BME280;12047;53.450;-2.286;2023-07-24T10:12:50;100520.69;;;21.36;100.00
23733;BME280;12047;53.450;-2.286;2023-07-24T10:18:05;100511.88;;;21.99;100.00
23733;BME280;12047;53.450;-2.286;2023-07-24T10:23:08;100518.31;;;21.02;100.00
23733;BME280;12047;53.450;-2.286;2023-07-24T10:28:10;100517.72;;;22.52;100.00
23733;BME280;12047;53.450;-2.286;2023-07-24T10:33:23;100524.28;;;21.04;100.00
23733;BME280;12047;53.450;-2.286;2023-07-24T10:38:34;100535.66;;;21.13;100.00
23733;BME280;12047;53.450;-2.286;2023-07-24T10:48:50;100544.63;;;21.00;100.00
23733;BME280;12047;53.450;-2.286;2023-07-24T10:53:51;100548.13;;;20.94;100.00
23733;BME280;12047;53.450;-2.286;2023-07-24T10:58:53;100549.09;;;21.39;100.00
23733;BME280;12047;53.450;-2.286;2023-07-24T11:03:54;100555.94;;;21.28;100.00
23733;BME280;12047;53.450;-2.286;2023-07-24T11:08:56;100558.72;;;21.66;100.00
23733;BME280;12047;53.450;-2.286;2023-07-24T11:13:57;100552.91;;;21.76;100.00
23733;BME280;12047;53.450;-2.286;2023-07-24T11:18:58;100568.88;;;21.71;100.00
23733;BME280;12047;53.450;-2.286;2023-07-24T11:23:58;100570.91;;;21.24;100.00
23733;BME280;12047;53.450;-2.286;2023-07-24T11:28:59;100564.63;;;21.50;100.00
23733;BME280;12047;53.450;-2.286;2023-07-24T11:34:00;100573.81;;;22.25;96.74
23733;BME280;12047;53.450;-2.286;2023-07-24T11:39:00;100568.34;;;21.94;100.00
23733;BME280;12047;53.450;-2.286;2023-07-24T11:44:01;100571.97;;;22.76;100.00
23733;BME280;12047;53.450;-2.286;2023-07-24T11:49:03;100579.72;;;22.40;97.81
23733;BME280;12047;53.450;-2.286;2023-07-24T11:54:08;100585.59;;;22.87;100.00
23733;BME280;12047;53.450;-2.286;2023-07-24T11:59:13;100578.19;;;22.51;96.57
23733;BME280;12047;53.450;-2.286;2023-07-24T12:04:15;100580.16;;;22.37;86.65
23733;BME280;12047;53.450;-2.286;2023-07-24T12:09:15;100584.22;;;22.78;93.46
23733;BME280;12047;53.450;-2.286;2023-07-24T12:14:16;100582.47;;;22.90;87.61
23733;BME280;12047;53.450;-2.286;2023-07-24T12:19:16;100577.94;;;22.53;87.61
23733;BME280;12047;53.450;-2.286;2023-07-24T12:24:18;100577.09;;;23.08;92.90
23733;BME280;12047;53.450;-2.286;2023-07-24T12:29:19;100585.69;;;22.49;94.36
23733;BME280;12047;53.450;-2.286;2023-07-24T12:34:22;100587.13;;;23.01;96.00
23733;BME280;12047;53.450;-2.286;2023-07-24T12:39:23;100585.34;;;23.14;95.48
23733;BME280;12047;53.450;-2.286;2023-07-24T12:44:23;100589.25;;;22.43;91.61
23733;BME280;12047;53.450;-2.286;2023-07-24T12:49:27;100580.03;;;22.82;91.34
23733;BME280;12047;53.450;-2.286;2023-07-24T12:54:27;100579.31;;;23.55;93.22
23733;BME280;12047;53.450;-2.286;2023-07-24T12:59:28;100573.81;;;23.80;91.28
23733;BME280;12047;53.450;-2.286;2023-07-24T13:04:29;100572.69;;;24.17;92.16
23733;BME280;12047;53.450;-2.286;2023-07-24T13:09:30;100567.63;;;24.21;89.00
23733;BME280;12047;53.450;-2.286;2023-07-24T13:14:30;100575.13;;;22.97;79.34
23733;BME280;12047;53.450;-2.286;2023-07-24T13:19:31;100578.25;;;23.56;87.18
23733;BME280;12047;53.450;-2.286;2023-07-24T13:24:32;100573.00;;;24.51;91.65
23733;BME280;12047;53.450;-2.286;2023-07-24T13:29:32;100563.97;;;23.30;87.88
23733;BME280;12047;53.450;-2.286;2023-07-24T13:34:33;100556.34;;;23.94;92.93
23733;BME280;12047;53.450;-2.286;2023-07-24T13:39:33;100560.66;;;23.83;88.46
23733;BME280;12047;53.450;-2.286;2023-07-24T13:44:34;100564.00;;;24.27;87.36
23733;BME280;12047;53.450;-2.286;2023-07-24T13:49:35;100559.22;;;24.11;87.02
23733;BME280;12047;53.450;-2.286;2023-07-24T13:54:36;100563.78;;;23.68;81.93
23733;BME280;12047;53.450;-2.286;2023-07-24T13:59:37;100566.25;;;25.06;88.39
23733;BME280;12047;53.450;-2.286;2023-07-24T14:04:40;100563.66;;;25.23;83.35
23733;BME280;12047;53.450;-2.286;2023-07-24T14:09:40;100564.19;;;24.55;82.55
23733;BME280;12047;53.450;-2.286;2023-07-24T14:14:41;100569.00;;;23.82;78.51
23733;BME280;12047;53.450;-2.286;2023-07-24T14:19:41;100569.28;;;23.92;78.88
23733;BME280;12047;53.450;-2.286;2023-07-24T14:24:42;100564.09;;;24.20;78.50
23733;BME280;12047;53.450;-2.286;2023-07-24T14:29:42;100564.47;;;23.94;79.04
23733;BME280;12047;53.450;-2.286;2023-07-24T14:34:45;100558.34;;;23.50;77.92
23733;BME280;12047;53.450;-2.286;2023-07-24T14:39:45;100570.59;;;24.84;79.11
23733;BME280;12047;53.450;-2.286;2023-07-24T14:44:46;100570.06;;;23.62;81.29
23733;BME280;12047;53.450;-2.286;2023-07-24T14:49:46;100568.84;;;23.77;84.24
23733;BME280;12047;53.450;-2.286;2023-07-24T14:54:46;100564.22;;;23.65;83.26
23733;BME280;12047;53.450;-2.286;2023-07-24T14:59:47;100573.28;;;24.19;84.11
23733;BME280;12047;53.450;-2.286;2023-07-24T15:04:47;100567.72;;;23.84;90.51
23733;BME280;12047;53.450;-2.286;2023-07-24T15:09:48;100563.28;;;23.35;89.74
23733;BME280;12047;53.450;-2.286;2023-07-24T15:14:48;100567.22;;;23.21;86.96
23733;BME280;12047;53.450;-2.286;2023-07-24T15:19:49;100561.72;;;23.46;87.56
23733;BME280;12047;53.450;-2.286;2023-07-24T15:24:49;100568.09;;;23.51;85.35
23733;BME280;12047;53.450;-2.286;2023-07-24T15:29:50;100568.38;;;23.98;92.41
23733;BME280;12047;53.450;-2.286;2023-07-24T15:34:50;100567.38;;;23.44;93.37
23733;BME280;12047;53.450;-2.286;2023-07-24T15:39:50;100561.47;;;23.29;94.16
23733;BME280;12047;53.450;-2.286;2023-07-24T15:44:51;100554.16;;;23.72;95.63
23733;BME280;12047;53.450;-2.286;2023-07-24T15:49:51;100561.84;;;22.71;94.27
23733;BME280;12047;53.450;-2.286;2023-07-24T15:54:52;100565.84;;;23.12;90.39
23733;BME280;12047;53.450;-2.286;2023-07-24T15:59:55;100565.41;;;23.33;85.55
23733;BME280;12047;53.450;-2.286;2023-07-24T16:04:56;100566.59;;;23.37;85.90
23733;BME280;12047;53.450;-2.286;2023-07-24T16:09:56;100571.63;;;23.52;92.90
23733;BME280;12047;53.450;-2.286;2023-07-24T16:14:57;100573.72;;;22.63;99.16
23733;BME280;12047;53.450;-2.286;2023-07-24T16:19:57;100574.63;;;22.82;100.00
23733;BME280;12047;53.450;-2.286;2023-07-24T16:24:58;100578.31;;;23.13;99.91
23733;BME280;12047;53.450;-2.286;2023-07-24T16:29:58;100579.81;;;22.84;100.00
23733;BME280;12047;53.450;-2.286;2023-07-24T16:34:59;100578.47;;;23.18;100.00
23733;BME280;12047;53.450;-2.286;2023-07-24T16:39:59;100579.00;;;23.45;97.55
23733;BME280;12047;53.450;-2.286;2023-07-24T16:45:00;100577.66;;;24.02;94.40
23733;BME280;12047;53.450;-2.286;2023-07-24T16:50:00;100572.75;;;23.81;93.97
23733;BME280;12047;53.450;-2.286;2023-07-24T16:55:01;100580.59;;;23.70;91.27
23733;BME280;12047;53.450;-2.286;2023-07-24T17:00:06;100581.63;;;23.33;93.28
23733;BME280;12047;53.450;-2.286;2023-07-24T17:05:07;100592.31;;;22.78;93.62
23733;BME280;12047;53.450;-2.286;2023-07-24T17:10:07;100589.53;;;22.91;94.60
23733;BME280;12047;53.450;-2.286;2023-07-24T17:15:09;100594.53;;;22.88;91.89
23733;BME280;12047;53.450;-2.286;2023-07-24T17:20:10;100601.69;;;23.25;89.01
23733;BME280;12047;53.450;-2.286;2023-07-24T17:25:11;100601.72;;;23.00;88.91
23733;BME280;12047;53.450;-2.286;2023-07-24T17:30:15;100604.81;;;22.48;89.04
23733;BME280;12047;53.450;-2.286;2023-07-24T17:35:18;100596.88;;;23.02;87.52
23733;BME280;12047;53.450;-2.286;2023-07-24T17:40:19;100605.53;;;22.30;92.59
23733;BME280;12047;53.450;-2.286;2023-07-24T17:45:20;100616.94;;;22.32;92.66
23733;BME280;12047;53.450;-2.286;2023-07-24T17:50:21;100613.78;;;22.42;98.13
23733;BME280;12047;53.450;-2.286;2023-07-24T17:55:26;100619.78;;;22.44;95.05
23733;BME280;12047;53.450;-2.286;2023-07-24T18:00:29;100618.28;;;23.04;95.92
23733;BME280;12047;53.450;-2.286;2023-07-24T18:05:38;100616.72;;;22.02;97.69
23733;BME280;12047;53.450;-2.286;2023-07-24T18:10:38;100615.63;;;22.10;97.06
23733;BME280;12047;53.450;-2.286;2023-07-24T18:15:39;100621.03;;;22.41;95.92
23733;BME280;12047;53.450;-2.286;2023-07-24T18:20:39;100627.78;;;22.25;96.70
23733;BME280;12047;53.450;-2.286;2023-07-24T18:25:40;100625.69;;;22.27;97.88
23733;BME280;12047;53.450;-2.286;2023-07-24T18:30:40;100622.47;;;22.44;96.09
23733;BME280;12047;53.450;-2.286;2023-07-24T18:35:45;100621.22;;;22.08;98.38
23733;BME280;12047;53.450;-2.286;2023-07-24T18:40:49;100631.38;;;22.51;96.27
23733;BME280;12047;53.450;-2.286;2023-07-24T18:45:50;100626.34;;;22.23;98.55
23733;BME280;12047;53.450;-2.286;2023-07-24T18:50:52;100636.38;;;22.09;97.89
23733;BME280;12047;53.450;-2.286;2023-07-24T18:55:53;100639.66;;;22.18;96.29
23733;BME280;12047;53.450;-2.286;2023-07-24T19:00:57;100646.38;;;21.95;94.96
23733;BME280;12047;53.450;-2.286;2023-07-24T19:06:00;100646.16;;;22.42;97.10
23733;BME280;12047;53.450;-2.286;2023-07-24T19:11:05;100645.78;;;21.80;99.53
23733;BME280;12047;53.450;-2.286;2023-07-24T19:16:05;100649.28;;;21.94;93.88
23733;BME280;12047;53.450;-2.286;2023-07-24T19:21:06;100645.16;;;21.85;96.69
23733;BME280;12047;53.450;-2.286;2023-07-24T19:26:06;100658.09;;;21.56;95.60
23733;BME280;12047;53.450;-2.286;2023-07-24T19:31:08;100658.56;;;21.47;97.73
23733;BME280;12047;53.450;-2.286;2023-07-24T19:36:09;100658.56;;;21.47;98.09
23733;BME280;12047;53.450;-2.286;2023-07-24T19:41:09;100663.72;;;21.09;96.24
23733;BME280;12047;53.450;-2.286;2023-07-24T19:46:10;100668.88;;;21.63;97.14
23733;BME280;12047;53.450;-2.286;2023-07-24T19:51:11;100667.91;;;21.24;98.79
23733;BME280;12047;53.450;-2.286;2023-07-24T19:56:11;100668.69;;;21.58;99.88
23733;BME280;12047;53.450;-2.286;2023-07-24T20:01:11;100674.13;;;20.98;96.62
23733;BME280;12047;53.450;-2.286;2023-07-24T20:06:12;100677.84;;;21.30;99.25
23733;BME280;12047;53.450;-2.286;2023-07-24T20:11:12;100682.81;;;21.14;100.00
23733;BME280;12047;53.450;-2.286;2023-07-24T20:16:13;100679.22;;;20.60;97.13
23733;BME280;12047;53.450;-2.286;2023-07-24T20:21:19;100681.56;;;20.77;100.00
23733;BME280;12047;53.450;-2.286;2023-07-24T20:26:20;100686.47;;;20.60;100.00
23733;BME280;12047;53.450;-2.286;2023-07-24T20:31:21;100691.69;;;20.81;100.00
23733;BME280;12047;53.450;-2.286;2023-07-24T20:36:22;100690.63;;;20.62;100.00
23733;BME280;12047;53.450;-2.286;2023-07-24T20:41:22;100694.97;;;20.63;100.00
23733;BME280;12047;53.450;-2.286;2023-07-24T20:46:23;100701.72;;;21.20;100.00
23733;BME280;12047;53.450;-2.286;2023-07-24T20:51:23;100703.25;;;20.62;100.00
23733;BME280;12047;53.450;-2.286;2023-07-24T20:56:24;100697.66;;;20.02;100.00
23733;BME280;12047;53.450;-2.286;2023-07-24T21:01:27;100702.00;;;20.10;100.00
23733;BME280;12047;53.450;-2.286;2023-07-24T21:06:28;100699.25;;;19.90;100.00
23733;BME280;12047;53.450;-2.286;2023-07-24T21:11:28;100708.28;;;19.83;100.00
23733;BME280;12047;53.450;-2.286;2023-07-24T21:16:29;100708.09;;;20.25;100.00
23733;BME280;12047;53.450;-2.286;2023-07-24T21:21:29;100717.00;;;20.32;100.00
23733;BME280;12047;53.450;-2.286;2023-07-24T21:26:30;100719.88;;;19.83;100.00
23733;BME280;12047;53.450;-2.286;2023-07-24T21:31:30;100718.81;;;20.19;100.00
23733;BME280;12047;53.450;-2.286;2023-07-24T21:36:31;100715.53;;;20.23;100.00
23733;BME280;12047;53.450;-2.286;2023-07-24T21:41:31;100720.00;;;20.44;100.00
23733;BME280;12047;53.450;-2.286;2023-07-24T21:46:32;100716.34;;;20.17;100.00
23733;BME280;12047;53.450;-2.286;2023-07-24T21:51:32;100720.22;;;20.08;100.00
23733;BME280;12047;53.450;-2.286;2023-07-24T21:56:33;100725.38;;;20.03;100.00
23733;BME280;12047;53.450;-2.286;2023-07-24T22:01:34;100716.84;;;19.93;100.00
23733;BME280;12047;53.450;-2.286;2023-07-24T22:06:35;100715.19;;;19.92;100.00
23733;BME280;12047;53.450;-2.286;2023-07-24T22:11:35;100732.09;;;19.86;100.00
23733;BME280;12047;53.450;-2.286;2023-07-24T22:16:36;100722.44;;;19.63;100.00
23733;BME280;12047;53.450;-2.286;2023-07-24T22:21:36;100728.75;;;19.77;100.00
23733;BME280;12047;53.450;-2.286;2023-07-24T22:26:36;100727.31;;;19.81;100.00
23733;BME280;12047;53.450;-2.286;2023-07-24T22:31:37;100727.91;;;19.49;100.00
23733;BME280;12047;53.450;-2.286;2023-07-24T22:36:37;100728.28;;;19.18;100.00
23733;BME280;12047;53.450;-2.286;2023-07-24T22:41:40;100723.03;;;19.10;100.00
23733;BME280;12047;53.450;-2.286;2023-07-24T22:46:41;100720.72;;;19.07;100.00
23733;BME280;12047;53.450;-2.286;2023-07-24T22:51:41;100714.22;;;18.94;100.00
23733;BME280;12047;53.450;-2.286;2023-07-24T22:56:43;100717.38;;;18.77;100.00
23733;BME280;12047;53.450;-2.286;2023-07-24T23:01:44;100717.19;;;18.78;100.00
23733;BME280;12047;53.450;-2.286;2023-07-24T23:06:44;100716.19;;;18.64;100.00
23733;BME280;12047;53.450;-2.286;2023-07-24T23:11:45;100715.22;;;18.36;100.00
23733;BME280;12047;53.450;-2.286;2023-07-24T23:16:45;100716.47;;;18.55;100.00
23733;BME280;12047;53.450;-2.286;2023-07-24T23:21:46;100716.88;;;18.37;100.00
23733;BME280;12047;53.450;-2.286;2023-07-24T23:26:46;100721.78;;;18.33;100.00
23733;BME280;12047;53.450;-2.286;2023-07-24T23:31:47;100723.31;;;18.21;100.00
23733;BME280;12047;53.450;-2.286;2023-07-24T23:36:47;100719.22;;;18.25;100.00
23733;BME280;12047;53.450;-2.286;2023-07-24T23:41:50;100712.09;;;18.18;100.00
23733;BME280;12047;53.450;-2.286;2023-07-24T23:46:52;100721.28;;;17.94;100.00
23733;BME280;12047;53.450;-2.286;2023-07-24T23:51:52;100713.22;;;18.23;100.00
23733;BME280;12047;53.450;-2.286;2023-07-24T23:56:52;100710.34;;;18.10;100.00
